createdAt,value
2022-09-11T00:01:41.314Z,20.40
2022-09-11T00:04:10.872Z,20.40
2022-09-11T00:06:40.003Z,20.40
2022-09-11T00:09:09.077Z,20.40
2022-09-11T00:11:41.486Z,20.40
2022-09-11T00:14:11.293Z,20.40
2022-09-11T00:16:44.872Z,20.30
2022-09-11T00:19:15.689Z,20.30
2022-09-11T00:21:44.161Z,20.40
2022-09-11T00:24:13.093Z,20.30
2022-09-11T00:26:42.587Z,20.30
2022-09-11T00:29:11.916Z,20.20
2022-09-11T00:31:41.731Z,20.10
2022-09-11T00:34:10.320Z,20.10
2022-09-11T00:36:41.423Z,20.00
2022-09-11T00:39:11.714Z,20.00
2022-09-11T00:41:42.001Z,20.00
2022-09-11T00:44:48.838Z,20.00
2022-09-11T00:47:20.250Z,20.00
2022-09-11T00:49:54.270Z,19.90
2022-09-11T00:52:27.219Z,19.90
2022-09-11T00:54:59.984Z,19.90
2022-09-11T00:57:31.348Z,19.90
2022-09-11T01:00:02.231Z,19.90
2022-09-11T01:02:34.768Z,19.90
2022-09-11T01:05:04.422Z,19.90
2022-09-11T01:07:34.715Z,19.90
2022-09-11T01:10:04.136Z,19.90
2022-09-11T01:12:40.031Z,19.80
2022-09-11T01:15:12.465Z,19.70
2022-09-11T01:17:54.142Z,19.60
2022-09-11T01:20:32.932Z,19.50
2022-09-11T01:23:20.703Z,19.40
2022-09-11T01:26:07.904Z,19.40
2022-09-11T01:28:41.157Z,19.30
2022-09-11T01:31:12.986Z,19.20
2022-09-11T01:33:45.776Z,19.10
2022-09-11T01:36:22.275Z,19.10
2022-09-11T01:38:54.082Z,19.10
2022-09-11T01:41:29.147Z,19.10
2022-09-11T01:44:04.796Z,19.20
2022-09-11T01:46:38.763Z,19.20
2022-09-11T01:49:12.382Z,19.20
2022-09-11T01:51:42.331Z,19.20
2022-09-11T01:54:14.631Z,19.30
2022-09-11T01:56:46.594Z,19.20
2022-09-11T01:59:26.125Z,19.20
2022-09-11T02:02:00.248Z,19.20
2022-09-11T02:04:34.955Z,19.20
2022-09-11T02:07:08.923Z,19.20
2022-09-11T02:09:43.162Z,19.20
2022-09-11T02:12:17.061Z,19.30
2022-09-11T02:14:50.390Z,19.30
2022-09-11T02:17:25.700Z,19.40
2022-09-11T02:19:56.505Z,19.40
2022-09-11T02:22:25.623Z,19.50
2022-09-11T02:24:54.355Z,19.50
2022-09-11T02:27:27.338Z,19.50
2022-09-11T02:30:00.492Z,19.50
2022-09-11T02:32:33.332Z,19.60
2022-09-11T02:35:02.125Z,19.60
2022-09-11T02:37:41.683Z,19.60
2022-09-11T02:40:44.042Z,19.60
2022-09-11T02:43:42.511Z,19.60
2022-09-11T02:46:34.642Z,19.60
2022-09-11T02:49:12.581Z,19.60
2022-09-11T02:51:47.239Z,19.60
2022-09-11T02:54:24.591Z,19.50
2022-09-11T02:57:01.461Z,19.50
2022-09-11T02:59:36.740Z,19.50
2022-09-11T03:02:12.761Z,19.40
2022-09-11T03:04:43.016Z,19.30
2022-09-11T03:07:11.608Z,19.20
2022-09-11T03:09:39.954Z,19.20
2022-09-11T03:12:15.569Z,19.10
2022-09-11T03:14:44.066Z,19.10
2022-09-11T03:17:13.820Z,19.10
2022-09-11T03:19:42.416Z,19.10
2022-09-11T03:22:10.676Z,19.10
2022-09-11T03:24:39.686Z,19.20
2022-09-11T03:27:08.890Z,19.20
2022-09-11T03:29:37.850Z,19.20
2022-09-11T03:32:07.052Z,19.30
2022-09-11T03:34:36.756Z,19.40
2022-09-11T03:37:05.168Z,19.40
2022-09-11T03:39:33.542Z,19.40
2022-09-11T03:42:02.206Z,19.40
2022-09-11T03:44:30.569Z,19.40
2022-09-11T03:46:58.868Z,19.40
2022-09-11T03:49:27.155Z,19.40
2022-09-11T03:51:57.662Z,19.40
2022-09-11T03:54:25.980Z,19.40
2022-09-11T03:56:54.339Z,19.40
2022-09-11T03:59:23.273Z,19.40
2022-09-11T04:01:52.600Z,19.40
2022-09-11T04:04:21.809Z,19.40
2022-09-11T04:06:50.324Z,19.40
2022-09-11T04:09:20.190Z,19.40
2022-09-11T04:11:51.812Z,19.40
2022-09-11T04:14:25.162Z,19.40
2022-09-11T04:16:55.959Z,19.50
2022-09-11T04:19:24.260Z,19.50
2022-09-11T04:21:52.820Z,19.60
2022-09-11T04:24:23.899Z,19.60
2022-09-11T04:26:52.264Z,19.60
2022-09-11T04:29:26.391Z,19.60
2022-09-11T04:31:57.723Z,19.70
2022-09-11T04:34:30.022Z,19.70
2022-09-11T04:36:58.419Z,19.70
2022-09-11T04:39:30.866Z,19.70
2022-09-11T04:41:59.580Z,19.80
2022-09-11T04:44:30.009Z,19.80
2022-09-11T04:46:59.216Z,19.70
2022-09-11T04:49:27.661Z,19.80
2022-09-11T04:51:57.848Z,19.80
2022-09-11T04:54:26.612Z,19.80
2022-09-11T04:56:56.255Z,19.80
2022-09-11T04:59:25.192Z,19.80
2022-09-11T05:02:01.488Z,19.80
2022-09-11T05:04:31.434Z,19.70
2022-09-11T05:07:02.710Z,19.80
2022-09-11T05:09:31.265Z,19.80
2022-09-11T05:12:02.679Z,19.80
2022-09-11T05:14:35.845Z,19.90
2022-09-11T05:17:05.068Z,19.90
2022-09-11T05:19:37.634Z,19.90
2022-09-11T05:22:08.136Z,19.80
2022-09-11T05:24:39.452Z,19.80
2022-09-11T05:27:09.775Z,19.80
2022-09-11T05:29:39.250Z,19.80
2022-09-11T05:32:13.450Z,19.80
2022-09-11T05:34:43.676Z,19.80
2022-09-11T05:37:15.530Z,19.80
2022-09-11T05:39:47.954Z,19.90
2022-09-11T05:42:19.397Z,20.00
2022-09-11T05:44:53.347Z,20.00
2022-09-11T05:47:22.539Z,20.10
2022-09-11T05:49:53.811Z,20.20
2022-09-11T05:52:22.413Z,20.30
2022-09-11T05:54:53.687Z,20.40
2022-09-11T05:57:24.072Z,20.70
2022-09-11T05:59:52.457Z,20.90
2022-09-11T06:02:20.834Z,20.90
2022-09-11T06:04:53.567Z,21.10
2022-09-11T06:07:24.425Z,21.40
2022-09-11T06:09:52.825Z,21.70
2022-09-11T06:12:23.348Z,22.10
2022-09-11T06:14:52.345Z,22.90
2022-09-11T06:17:23.120Z,23.10
2022-09-11T06:19:52.487Z,23.30
2022-09-11T06:22:21.435Z,23.70
2022-09-11T06:24:51.909Z,23.40
2022-09-11T06:27:20.188Z,23.30
2022-09-11T06:29:52.498Z,23.00
2022-09-11T06:32:22.247Z,22.80
2022-09-11T06:34:50.746Z,22.50
2022-09-11T06:37:19.334Z,22.40
2022-09-11T06:39:49.530Z,22.40
2022-09-11T06:42:24.248Z,22.50
2022-09-11T06:44:54.523Z,22.70
2022-09-11T06:47:23.183Z,23.10
2022-09-11T06:49:54.365Z,23.30
2022-09-11T06:52:41.248Z,23.50
2022-09-11T06:55:24.101Z,23.60
2022-09-11T06:57:58.256Z,23.70
2022-09-11T07:00:31.278Z,23.70
2022-09-11T07:02:59.716Z,23.70
2022-09-11T07:05:28.540Z,23.70
2022-09-11T07:07:57.795Z,23.90
2022-09-11T07:10:30.191Z,24.00
2022-09-11T07:13:01.728Z,24.20
2022-09-11T07:15:33.128Z,24.30
2022-09-11T07:18:03.460Z,24.40
2022-09-11T07:20:32.483Z,24.60
2022-09-11T07:23:00.929Z,24.70
2022-09-11T07:25:32.051Z,24.90
2022-09-11T07:28:04.069Z,24.90
2022-09-11T07:30:37.526Z,24.90
2022-09-11T07:33:05.898Z,24.70
2022-09-11T07:35:38.116Z,24.60
2022-09-11T07:38:06.561Z,24.60
2022-09-11T07:40:38.173Z,24.60
2022-09-11T07:43:07.323Z,24.70
2022-09-11T07:45:37.154Z,24.80
2022-09-11T07:48:07.980Z,25.10
2022-09-11T07:50:36.378Z,25.30
2022-09-11T07:53:06.419Z,25.20
2022-09-11T07:55:35.891Z,25.30
2022-09-11T07:58:04.986Z,25.30
2022-09-11T08:00:36.997Z,25.10
2022-09-11T08:03:16.093Z,24.90
2022-09-11T08:05:44.679Z,24.80
2022-09-11T08:08:14.502Z,24.80
2022-09-11T08:10:42.916Z,24.70
2022-09-11T08:13:12.620Z,25.00
2022-09-11T08:15:47.926Z,25.10
2022-09-11T08:18:18.411Z,25.10
2022-09-11T08:20:47.033Z,25.10
2022-09-11T08:23:15.786Z,25.10
2022-09-11T08:25:45.255Z,25.30
2022-09-11T08:28:13.712Z,25.40
2022-09-11T08:30:42.167Z,25.40
2022-09-11T08:33:13.030Z,25.40
2022-09-11T08:35:42.825Z,25.10
2022-09-11T08:38:11.091Z,25.10
2022-09-11T08:40:40.078Z,25.10
2022-09-11T08:43:20.945Z,25.00
2022-09-11T08:45:51.712Z,25.00
2022-09-11T08:48:28.089Z,25.20
2022-09-11T08:50:57.857Z,25.40
2022-09-11T08:53:27.286Z,25.50
2022-09-11T08:56:05.147Z,25.50
2022-09-11T08:58:44.630Z,25.30
2022-09-11T09:01:24.050Z,25.10
2022-09-11T09:04:14.640Z,25.20
2022-09-11T09:06:55.179Z,25.30
2022-09-11T09:09:35.101Z,25.40
2022-09-11T09:12:11.782Z,25.30
2022-09-11T09:15:26.246Z,25.20
2022-09-11T09:18:02.770Z,25.30
2022-09-11T09:20:35.378Z,25.60
2022-09-11T09:23:11.989Z,25.50
2022-09-11T09:25:43.776Z,25.30
2022-09-11T09:28:19.932Z,24.90
2022-09-11T09:30:52.143Z,24.90
2022-09-11T09:33:31.354Z,24.80
2022-09-11T09:36:13.846Z,24.60
2022-09-11T09:38:44.545Z,24.40
2022-09-11T09:41:43.527Z,24.20
2022-09-11T09:44:22.479Z,24.30
2022-09-11T09:46:53.776Z,24.50
2022-09-11T09:49:25.945Z,24.60
2022-09-11T09:52:03.582Z,24.60
2022-09-11T09:54:36.629Z,24.60
2022-09-11T09:57:07.614Z,24.80
2022-09-11T09:59:41.059Z,24.90
2022-09-11T10:02:09.594Z,25.10
2022-09-11T10:04:38.232Z,25.30
2022-09-11T10:07:10.752Z,25.40
2022-09-11T10:09:48.588Z,25.20
2022-09-11T10:12:21.663Z,25.10
2022-09-11T10:14:54.366Z,25.10
2022-09-11T10:17:33.441Z,25.20
2022-09-11T10:20:22.642Z,25.30
2022-09-11T10:22:52.479Z,25.40
2022-09-11T10:25:26.555Z,25.10
2022-09-11T10:28:04.732Z,25.30
2022-09-11T10:30:36.682Z,25.40
2022-09-11T10:33:09.674Z,25.40
2022-09-11T10:35:38.761Z,25.50
2022-09-11T10:38:18.807Z,25.30
2022-09-11T10:41:04.265Z,25.20
2022-09-11T10:43:43.556Z,25.20
2022-09-11T10:46:29.779Z,25.30
2022-09-11T10:49:00.186Z,25.40
2022-09-11T10:51:30.848Z,25.40
2022-09-11T10:54:07.138Z,25.30
2022-09-11T10:56:43.140Z,25.30
2022-09-11T10:59:23.408Z,25.40
2022-09-11T11:01:52.365Z,25.40
2022-09-11T11:04:21.760Z,25.40
2022-09-11T11:07:05.966Z,25.40
2022-09-11T11:09:51.336Z,25.50
2022-09-11T11:12:41.579Z,25.50
2022-09-11T11:15:31.780Z,25.70
2022-09-11T11:18:24.899Z,25.80
2022-09-11T11:21:00.651Z,25.70
2022-09-11T11:23:49.918Z,25.90
2022-09-11T11:26:42.396Z,26.00
2022-09-11T11:29:38.132Z,26.00
2022-09-11T11:32:30.421Z,26.10
2022-09-11T11:35:17.553Z,26.20
2022-09-11T11:38:06.691Z,26.20
2022-09-11T11:40:42.047Z,26.10
2022-09-11T11:43:13.189Z,26.20
2022-09-11T11:45:47.203Z,26.30
2022-09-11T11:48:20.639Z,26.20
2022-09-11T11:50:53.450Z,26.20
2022-09-11T11:53:26.798Z,26.20
2022-09-11T11:56:10.043Z,26.20
2022-09-11T11:58:48.438Z,26.20
2022-09-11T12:01:25.319Z,26.30
2022-09-11T12:04:02.254Z,26.50
2022-09-11T12:06:31.592Z,26.70
2022-09-11T12:09:00.502Z,26.80
2022-09-11T12:11:32.489Z,26.70
2022-09-11T12:14:01.556Z,26.70
2022-09-11T12:16:34.273Z,26.70
2022-09-11T12:19:16.743Z,26.70
2022-09-11T12:22:11.309Z,26.60
2022-09-11T12:24:59.405Z,26.40
2022-09-11T12:27:52.924Z,26.30
2022-09-11T12:30:26.045Z,26.30
2022-09-11T12:32:57.596Z,26.30
2022-09-11T12:35:47.065Z,26.40
2022-09-11T12:38:24.321Z,26.40
2022-09-11T12:40:56.530Z,26.50
2022-09-11T12:43:49.314Z,26.60
2022-09-11T12:47:00.513Z,26.70
2022-09-11T12:49:30.954Z,26.70
2022-09-11T12:52:01.643Z,26.70
2022-09-11T12:54:33.522Z,26.70
2022-09-11T12:57:06.378Z,26.70
2022-09-11T12:59:39.173Z,26.80
2022-09-11T13:02:26.398Z,26.80
2022-09-11T13:04:58.027Z,26.90
2022-09-11T13:07:31.960Z,26.80
2022-09-11T13:10:04.119Z,26.80
2022-09-11T13:12:53.106Z,26.80
2022-09-11T13:15:41.133Z,26.90
2022-09-11T13:18:31.036Z,27.00
2022-09-11T13:21:14.841Z,27.10
2022-09-11T13:23:43.672Z,27.20
2022-09-11T13:26:18.211Z,27.20
2022-09-11T13:28:49.378Z,27.20
2022-09-11T13:31:21.566Z,27.10
2022-09-11T13:33:52.947Z,27.10
2022-09-11T13:36:25.478Z,27.10
2022-09-11T13:38:56.747Z,27.00
2022-09-11T13:41:28.959Z,27.10
2022-09-11T13:44:00.229Z,27.10
2022-09-11T13:46:31.437Z,27.10
2022-09-11T13:49:23.075Z,27.10
2022-09-11T13:51:52.810Z,27.10
2022-09-11T13:54:29.002Z,27.10
2022-09-11T13:57:14.668Z,27.00
2022-09-11T13:59:49.017Z,27.00
2022-09-11T14:02:45.090Z,27.00
2022-09-11T14:05:19.345Z,27.00
2022-09-11T14:08:01.438Z,27.10
2022-09-11T14:10:33.163Z,27.10
2022-09-11T14:13:12.519Z,27.10
2022-09-11T14:15:44.018Z,27.10
2022-09-11T14:18:25.391Z,27.10
2022-09-11T14:20:55.207Z,27.10
2022-09-11T14:23:28.687Z,27.10
2022-09-11T14:26:12.711Z,27.20
2022-09-11T14:28:49.951Z,27.20
2022-09-11T14:31:30.353Z,27.20
2022-09-11T14:34:17.579Z,27.20
2022-09-11T14:36:50.235Z,27.20
2022-09-11T14:39:30.565Z,27.20
2022-09-11T14:41:59.535Z,27.20
2022-09-11T14:44:29.071Z,27.10
2022-09-11T14:46:59.247Z,27.20
2022-09-11T14:49:27.950Z,27.20
2022-09-11T14:51:59.317Z,27.20
2022-09-11T14:54:31.781Z,27.20
2022-09-11T14:57:00.770Z,27.30
2022-09-11T14:59:30.118Z,27.40
2022-09-11T15:01:59.637Z,27.40
2022-09-11T15:04:29.601Z,27.40
2022-09-11T15:06:59.857Z,27.30
2022-09-11T15:09:29.643Z,27.20
2022-09-11T15:11:58.245Z,27.20
2022-09-11T15:14:54.458Z,27.10
2022-09-11T15:17:17.946Z,27.20
2022-09-11T15:19:47.199Z,27.20
2022-09-11T15:22:15.446Z,27.20
2022-09-11T15:24:45.212Z,27.10
2022-09-11T15:27:13.533Z,27.10
2022-09-11T15:29:42.843Z,27.20
2022-09-11T15:32:11.466Z,27.20
2022-09-11T15:34:40.787Z,27.20
2022-09-11T15:37:09.180Z,27.20
2022-09-11T15:39:37.677Z,27.30
2022-09-11T15:42:08.385Z,27.30
2022-09-11T15:44:38.130Z,27.30
2022-09-11T15:47:06.993Z,27.30
2022-09-11T15:49:40.925Z,27.30
2022-09-11T15:52:09.887Z,27.30
2022-09-11T15:54:38.550Z,27.30
2022-09-11T15:57:08.663Z,27.30
2022-09-11T15:59:36.956Z,27.40
2022-09-11T16:02:05.400Z,27.40
2022-09-11T16:04:34.830Z,27.30
2022-09-11T16:07:03.303Z,27.30
2022-09-11T16:09:32.933Z,27.30
2022-09-11T16:12:02.154Z,27.20
2022-09-11T16:14:33.734Z,27.20
2022-09-11T16:17:03.495Z,27.10
2022-09-11T16:19:32.435Z,27.00
2022-09-11T16:22:03.078Z,27.00
2022-09-11T16:24:37.669Z,27.00
2022-09-11T16:27:08.112Z,27.00
2022-09-11T16:30:09.427Z,27.00
2022-09-11T16:32:29.318Z,26.90
2022-09-11T16:34:59.951Z,26.90
2022-09-11T16:37:29.389Z,26.90
2022-09-11T16:39:57.737Z,26.90
2022-09-11T16:42:26.561Z,26.90
2022-09-11T16:44:56.303Z,26.80
2022-09-11T16:47:24.673Z,26.80
2022-09-11T16:50:09.139Z,26.70
2022-09-11T16:52:38.595Z,26.70
2022-09-11T16:55:09.627Z,26.70
2022-09-11T16:57:38.112Z,26.60
2022-09-11T17:00:09.658Z,26.60
2022-09-11T17:02:38.532Z,26.60
2022-09-11T17:05:08.185Z,26.50
2022-09-11T17:07:36.718Z,26.50
2022-09-11T17:10:05.702Z,26.50
2022-09-11T17:12:34.021Z,26.40
2022-09-11T17:15:02.277Z,26.40
2022-09-11T17:17:32.996Z,26.30
2022-09-11T17:20:01.294Z,26.30
2022-09-11T17:22:29.795Z,26.30
2022-09-11T17:24:58.150Z,26.20
2022-09-11T17:27:27.410Z,26.10
2022-09-11T17:29:55.736Z,26.00
2022-09-11T17:32:28.267Z,25.90
2022-09-11T17:34:59.228Z,25.90
2022-09-11T17:37:28.137Z,25.70
2022-09-11T17:39:57.957Z,25.60
2022-09-11T17:42:28.738Z,25.50
2022-09-11T17:44:57.423Z,25.40
2022-09-11T17:47:26.042Z,25.40
2022-09-11T17:49:54.340Z,25.30
2022-09-11T17:52:24.461Z,25.20
2022-09-11T17:54:52.699Z,25.20
2022-09-11T17:57:21.085Z,25.10
2022-09-11T17:59:50.345Z,25.10
2022-09-11T18:02:19.852Z,25.00
2022-09-11T18:04:48.726Z,25.00
2022-09-11T18:07:17.345Z,24.90
2022-09-11T18:09:47.331Z,24.90
2022-09-11T18:12:15.709Z,24.90
2022-09-11T18:14:44.076Z,24.80
2022-09-11T18:17:12.724Z,24.80
2022-09-11T18:19:40.995Z,24.80
2022-09-11T18:22:10.075Z,24.60
2022-09-11T18:24:39.871Z,24.60
2022-09-11T18:27:11.581Z,24.50
2022-09-11T18:29:40.703Z,24.40
2022-09-11T18:32:10.166Z,24.30
2022-09-11T18:34:38.789Z,24.20
2022-09-11T18:37:07.784Z,24.10
2022-09-11T18:39:36.076Z,24.10
2022-09-11T18:42:06.369Z,24.10
2022-09-11T18:44:36.408Z,24.00
2022-09-11T18:47:05.092Z,23.90
2022-09-11T18:49:33.680Z,23.80
2022-09-11T18:52:02.633Z,23.70
2022-09-11T18:54:31.618Z,23.60
2022-09-11T18:57:00.324Z,23.50
2022-09-11T18:59:28.802Z,23.40
2022-09-11T19:02:00.075Z,23.30
2022-09-11T19:04:29.060Z,23.30
2022-09-11T19:06:57.373Z,23.20
2022-09-11T19:09:26.536Z,23.10
2022-09-11T19:11:54.805Z,23.00
2022-09-11T19:14:23.255Z,22.80
2022-09-11T19:16:53.151Z,22.70
2022-09-11T19:19:23.128Z,22.70
2022-09-11T19:21:51.567Z,22.60
2022-09-11T19:24:20.411Z,22.60
2022-09-11T19:26:49.116Z,22.60
2022-09-11T19:29:20.224Z,22.50
2022-09-11T19:31:48.667Z,22.50
2022-09-11T19:34:17.074Z,22.50
2022-09-11T19:36:47.017Z,22.40
2022-09-11T19:39:15.292Z,22.40
2022-09-11T19:41:43.715Z,22.30
2022-09-11T19:44:14.477Z,22.20
2022-09-11T19:46:44.246Z,22.20
2022-09-11T19:49:12.895Z,22.10
2022-09-11T19:51:42.923Z,22.00
2022-09-11T19:54:14.626Z,21.80
2022-09-11T19:56:44.506Z,21.80
2022-09-11T19:59:14.436Z,21.70
2022-09-11T20:01:43.203Z,21.60
2022-09-11T20:04:13.567Z,21.60
2022-09-11T20:06:42.117Z,21.60
2022-09-11T20:09:30.272Z,21.50
2022-09-11T20:12:01.555Z,21.50
2022-09-11T20:14:31.641Z,21.40
2022-09-11T20:17:01.173Z,21.40
2022-09-11T20:19:30.158Z,21.40
2022-09-11T20:22:00.573Z,21.30
2022-09-11T20:24:29.361Z,21.30
2022-09-11T20:26:58.208Z,21.30
2022-09-11T20:29:28.052Z,21.20
2022-09-11T20:31:56.430Z,21.20
2022-09-11T20:34:27.954Z,21.10
2022-09-11T20:37:00.874Z,21.10
2022-09-11T20:39:30.759Z,21.00
2022-09-11T20:42:00.738Z,21.00
2022-09-11T20:44:34.911Z,21.00
2022-09-11T20:47:05.783Z,21.00
2022-09-11T20:49:35.563Z,21.00
2022-09-11T20:52:05.491Z,21.00
2022-09-11T20:54:33.909Z,21.00
2022-09-11T20:57:02.757Z,21.00
2022-09-11T20:59:32.746Z,20.90
2022-09-11T21:02:01.068Z,20.90
2022-09-11T21:04:30.072Z,20.90
2022-09-11T21:07:00.625Z,20.80
2022-09-11T21:09:29.484Z,20.80
2022-09-11T21:11:58.379Z,20.80
2022-09-11T21:14:26.776Z,20.80
2022-09-11T21:16:56.738Z,20.80
2022-09-11T21:19:25.289Z,20.70
2022-09-11T21:21:54.374Z,20.60
2022-09-11T21:24:23.178Z,20.60
2022-09-11T21:26:51.598Z,20.50
2022-09-11T21:29:19.971Z,20.40
2022-09-11T21:31:48.500Z,20.40
2022-09-11T21:34:18.717Z,20.40
2022-09-11T21:36:47.144Z,20.40
2022-09-11T21:39:16.124Z,20.40
2022-09-11T21:41:44.400Z,20.30
2022-09-11T21:44:12.787Z,20.30
2022-09-11T21:46:41.223Z,20.10
2022-09-11T21:49:10.551Z,20.10
2022-09-11T21:51:40.693Z,20.10
2022-09-11T21:54:09.029Z,20.00
2022-09-11T21:56:37.274Z,19.90
2022-09-11T21:59:05.605Z,19.90
2022-09-11T22:01:34.230Z,19.80
2022-09-11T22:04:03.077Z,19.80
2022-09-11T22:06:31.736Z,19.90
2022-09-11T22:09:01.533Z,19.80
2022-09-11T22:11:30.790Z,19.80
2022-09-11T22:13:59.076Z,19.80
2022-09-11T22:16:27.438Z,19.80
2022-09-11T22:18:57.030Z,19.80
2022-09-11T22:21:25.485Z,19.90
2022-09-11T22:23:55.087Z,19.80
2022-09-11T22:26:24.982Z,19.70
2022-09-11T22:28:53.424Z,19.70
2022-09-11T22:31:23.952Z,19.60
2022-09-11T22:33:52.652Z,19.50
2022-09-11T22:36:23.925Z,19.50
2022-09-11T22:38:52.584Z,19.50
2022-09-11T22:41:21.425Z,19.40
2022-09-11T22:43:51.169Z,19.40
2022-09-11T22:46:20.833Z,19.40
2022-09-11T22:48:49.628Z,19.40
2022-09-11T22:51:17.968Z,19.30
2022-09-11T22:53:46.843Z,19.30
2022-09-11T22:56:15.755Z,19.20
2022-09-11T22:58:44.245Z,19.10
2022-09-11T23:01:19.744Z,19.10
2022-09-11T23:03:50.615Z,19.10
2022-09-11T23:06:37.027Z,19.10
2022-09-11T23:09:05.816Z,19.10
2022-09-11T23:11:34.367Z,19.10
2022-09-11T23:14:02.655Z,19.10
2022-09-11T23:16:32.877Z,19.10
2022-09-11T23:19:02.756Z,19.10
2022-09-11T23:21:32.978Z,19.00
2022-09-11T23:24:02.048Z,19.00
2022-09-11T23:26:31.212Z,18.90
2022-09-11T23:29:00.116Z,19.00
2022-09-11T23:31:30.260Z,19.00
2022-09-11T23:34:01.389Z,19.00
2022-09-11T23:36:31.309Z,19.00
2022-09-11T23:39:00.288Z,19.00
2022-09-11T23:41:29.138Z,19.00
2022-09-11T23:43:57.588Z,18.90
2022-09-11T23:46:26.197Z,18.80
2022-09-11T23:48:54.672Z,18.80
2022-09-11T23:51:24.443Z,18.70
2022-09-11T23:53:52.895Z,18.70
2022-09-11T23:56:22.471Z,18.70
2022-09-11T23:58:51.472Z,18.70
